Airfield :
LOGIN :

Register | Disclaimer

   EN    FR    IT 

 










Legend :    VFR   Marginal VFR   IFR   Intensive IFR   Very Intensive IFR
Visi :
Ceiling :
>= 8 km
>= 3000ft
5 to 8 km
1000 to 3000 ft
1500m to 5 km
500 to 1000 ft
800 to 1500m
200 to 500 ft
< 800m
< 200 ft
Symbols :   Thunderstorms  Fog  Heavy snow  Heavy precipitations  Wind > 20 kt
SIGMETs :     Misc.  Thunderstorms  Icing  Turbulence  Mountain Waves  Volcanic Ashes







- Airport Elevation : 1768 ft


LEHC - Huesca Pirineos

CURRENT METAR :
  • 210800Z VRB02KT 9999 1000E PRFG NSC M03/M03 Q1016

EXPIRED METARs :
  • 210730Z AUTO 35001KT 9999 NCD M02/M03 Q1015
  • 210700Z AUTO VRB02KT 9999 NCD M02/M03 Q1015
  • 210630Z AUTO 32001KT 9999 NCD M04/M04 Q1015
  • 210600Z AUTO 00000KT 9999 NCD M02/M03 Q1015
  • 210530Z AUTO VRB01KT 9999 NCD M03/M04 Q1014

TAF AMD TAF LEHC
Valid from the 21 at 07:00 until the 22 at 03:00 UTC


210758Z 2107/2203 31007KT 9999 BKN010 TX07/2113Z TNM02/2107Z
TEMPO 2107/2110 1000 BCFG BKN002
TEMPO 2111/2117 28012KT
No reported NOTAMs for that airfield.



MET'MAP, your aeronautical weather chart ! - Copyright ORBIFLY December 2007 - Disclaimer

ORBIFLY MET'MAP TEAM :

Programming & Development : Alexandra Zaïnal
Concept & Development : Baudouin d'Aumeries
Co-Development & Prog : Marc-Olivier Méhu
Technical & hardware support : Manuel Goepfert

Contact : metmap@orbifly.com




SOURCES & CREDITS :

   NOAA